Home > Products > Valid Products > TAF

000
FTUS43 KGRR 241900 AAA
TAFMKG
TAF AMD
KMKG 241954Z 2420/2518 25014G26KT 6SM -RA BR OVC015
     FM242100 25016G28KT 2SM -SN BR OVC010
     FM250400 27013G23KT 2SM -SHSN OVC010
     FM250900 28012KT 2SM -SHSN OVC015=



000
FTUS43 KGRR 241800 AAA
TAFGRR
TAF AMD
KGRR 241853Z 2419/2518 25025G38KT 6SM -SHRASN BR OVC012
     FM242000 25020G34KT 2SM -SN BR OVC015
     FM250400 25013G23KT 2SM -SHSN OVC015
     FM250900 25012KT 2SM -SHSN OVC015=



000
FTUS43 KGRR 241800 AAA
TAFAZO
TAF AMD
KAZO 241811Z 2418/2518 24022G35KT 4SM -RA BR OVC012
     FM242000 25018G35KT 3SM -SHSN BR BKN015
     FM250800 25012KT 5SM -SHSN OVC015=



000
FTUS43 KGRR 241800 AAA
TAFBTL
TAF AMD
KBTL 241811Z 2418/2518 25022G42KT 5SM -RA BR OVC015
     FM242000 25018G35KT 3SM -SHSN BR BKN015
     FM250800 28012KT 4SM -SHSN OVC015=



000
FTUS43 KGRR 241700
TAFLAN
TAF
KLAN 241740Z 2418/2518 22012KT 2SM -RA BR OVC009
     FM241900 24022G36KT 6SM -SHRA BR OVC015
     FM242100 25020G35KT 5SM -SHSN BR BKN015
     FM250400 24015G25KT P6SM -SHSN BKN015
     FM250900 26012KT P6SM -SHSN OVC015=



000
FTUS43 KGRR 241700
TAFAZO
TAF
KAZO 241740Z 2418/2518 25014G28KT 4SM -RA BR OVC008
     FM242000 25015G25KT 3SM -SHSN BR BKN015
     FM250800 25012KT 5SM -SHSN OVC015=



000
FTUS43 KGRR 241700
TAFBTL
TAF
KBTL 241740Z 2418/2518 25014G28KT 5SM -RA BR OVC015
     FM242000 25015G25KT 3SM -SHSN BR BKN015
     FM250800 28012KT 4SM -SHSN OVC015=



000
FTUS43 KGRR 241700
TAFMKG
TAF
KMKG 241740Z 2418/2518 25014G26KT 2SM -RA BR OVC003
     FM242100 25016G28KT 3/4SM -SN BR OVC007
     FM250400 27013G23KT 2SM -SHSN OVC010
     FM250900 28012KT 2SM -SHSN OVC015=



000
FTUS43 KGRR 241700
TAFGRR
TAF
KGRR 241740Z 2418/2518 25015G28KT 1 1/2SM -SHRA BR OVC004
     FM242000 25020G34KT 1 1/2SM -SN BR OVC003
     FM250400 25013G23KT 2SM -SHSN OVC015
     FM250900 25012KT 2SM -SHSN OVC015=



000
FTUS43 KGRR 241700
TAFJXN
TAF
KJXN 241740Z 2418/2518 22020G38KT P6SM -RA OVC020
     FM241900 24022G36KT 6SM -SHRA BR OVC015
     FM242100 25020G35KT 5SM -SHSN BR BKN015
     FM250400 24015G25KT P6SM -SHSN BKN015
     FM250900 26012KT P6SM -SHSN OVC015=



000
FTUS43 KGRR 241500 AAA
TAFAZO
TAF AMD
KAZO 241526Z 2415/2512 21007KT 6SM -RA BR OVC004
     FM241800 21020G35KT 6SM -SHRA BR OVC008
     FM250000 22015G25KT 5SM -SHSN BR BKN015=



000
FTUS43 KGRR 241500 AAA
TAFGRR
TAF AMD
KGRR 241525Z 2415/2512 23012KT 1 1/2SM -SHRA BR OVC004
     FM241800 24015G25KT 6SM -RA BR OVC003
     FM242200 24020G34KT 1 1/2SM -SN BR OVC003
     FM250400 26013G23KT 2SM -SHSN OVC015=



000
FTUS43 KGRR 241100 RRA
TAFGRR
TAF
KGRR 241145Z 2412/2512 23012KT 4SM -RA BR OVC006
     FM241800 24015G25KT 6SM -RA BR OVC003
     FM242200 24020G34KT 1 1/2SM -SN BR OVC003
     FM250400 26013G23KT 2SM -SHSN OVC015=



000
FTUS43 KGRR 241100 RRA
TAFAZO
TAF
KAZO 241145Z 2412/2512 22014G22KT 6SM -RA BR OVC008
     FM241800 21020G35KT 6SM -SHRA BR OVC008
     FM250000 22015G25KT 5SM -SHSN BR BKN015=



000
FTUS43 KGRR 241100 RRA
TAFMKG
TAF
KMKG 241145Z 2412/2512 24012KT 6SM -RA BR OVC003
     FM241800 25015G25KT 6SM -RA BR OVC003
     FM242200 25020G32KT 3/4SM -SN BR OVC003
     FM250400 27013G23KT 2SM -SHSN OVC015=



000
FTUS43 KGRR 241100 RRA
TAFLAN
TAF
KLAN 241145Z 2412/2512 22015G24KT 6SM -RA BR OVC009
     FM241800 23022G40KT 6SM -SHRA BR OVC015
     FM250400 24015G25KT P6SM -SHSN BKN015=



000
FTUS43 KGRR 241100 RRA
TAFJXN
TAF
KJXN 241145Z 2412/2512 22015G24KT 6SM -RA BR OVC009
     FM241800 23022G40KT 6SM -SHRA BR OVC015
     FM250400 24015G25KT P6SM -SHSN BKN025=



000
FTUS43 KGRR 241100 RRA
TAFBTL
TAF
KBTL 241145Z 2412/2512 22015G24KT P6SM -RA OVC008
     FM241800 21020G35KT 6SM -SHRA BR OVC008
     FM250000 22015G25KT 5SM -SHSN BR BKN015=



000
FTUS43 KGRR 241000 AAA
TAFBTL
TAF AMD
KBTL 241027Z 2410/2506 22014G21KT 6SM -RA BR OVC009
     FM241800 21017G27KT 2SM -DZ BR OVC009
     FM242300 24015G25KT 5SM -SHSN BR BKN015=



000
FTUS43 KGRR 241000 AAA
TAFJXN
TAF AMD
KJXN 241026Z 2410/2506 23013G23KT P6SM -RA OVC010
     FM241600 21021G33KT 5SM -SHRA BR OVC015
     FM242300 22019G29KT P6SM VCSH BKN025=



000
FTUS43 KGRR 241000 AAA
TAFLAN
TAF AMD
KLAN 241024Z 2410/2506 22013G22KT 5SM -RA BR OVC009
     FM241600 21021G30KT 5SM -SHRA BR OVC015
     FM242300 22019G29KT P6SM VCSH BKN025=



000
FTUS43 KGRR 241000 AAA
TAFAZO
TAF AMD
KAZO 241023Z 2410/2506 22012KT 6SM -RA BR OVC007
     FM241800 21017G27KT 2SM -DZ BR OVC009
     FM242300 24015G25KT 5SM -SHSN BR BKN015=



000
FTUS43 KGRR 241000 AAA
TAFMKG
TAF AMD
KMKG 241021Z 2410/2506 24012KT 5SM -RA BR OVC003
     FM242100 24015G25KT 3/4SM -SN BR OVC004=



000
FTUS43 KGRR 241000 AAA
TAFGRR
TAF AMD
KGRR 241016Z 2410/2506 23012KT 5SM -RA BR OVC006
     FM242200 25015G25KT 1SM -SN BR OVC004=



000
FTUS43 KGRR 241000 AAA
TAFGRR
TAF AMD
KGRR 241016Z 2410/2506 23012KT 5SM -RA BR OVC006
     FM242200 25015G25KT 1SM -SN BR OVC004=



000
FTUS43 KGRR 240500
TAFBTL
TAF
KBTL 240540Z 2406/2506 15011KT 5SM RA BR OVC009
     FM240800 19010KT 4SM -RA BR OVC004
     FM241800 21017G27KT 2SM -DZ BR OVC009
     FM242300 24015G25KT 5SM -SHSN BR BKN015=



000
FTUS43 KGRR 240500
TAFGRR
TAF
KGRR 240540Z 2406/2506 12008KT 2SM RA BR OVC006
     FM240900 20011KT 1 1/2SM -RA BR OVC004
     FM242200 25015G25KT 1SM -SN BR OVC004=



000
FTUS43 KGRR 240500
TAFMKG
TAF
KMKG 240540Z 2406/2506 11010KT 5SM -RA BR OVC007
     FM240730 19010KT 1 1/2SM RA BR OVC008
     FM240900 21008KT 2SM -RA BR OVC004
     FM242100 24015G25KT 1SM -SN BR OVC004=



000
FTUS43 KGRR 240500
TAFLAN
TAF
KLAN 240540Z 2406/2506 13010KT 4SM RA BR OVC008
     FM240700 16012KT 3SM -RA BR OVC007
     FM241600 21021G30KT 5SM -SHRA BR OVC015
     FM242300 22019G29KT P6SM VCSH BKN025=



000
FTUS43 KGRR 240500
TAFAZO
TAF
KAZO 240540Z 2406/2506 14007KT 5SM RA BR OVC006
     FM240800 19010KT 4SM -RA BR OVC004
     FM241800 21017G27KT 2SM -DZ BR OVC009
     FM242300 24015G25KT 5SM -SHSN BR BKN015=



000
FTUS43 KGRR 240500
TAFJXN
TAF
KJXN 240540Z 2406/2506 14011KT 5SM RA BR OVC007
     FM240800 19014KT 1 1/2SM -RA BR OVC006
     FM241600 21021G33KT 5SM -SHRA BR OVC015
     FM242300 22019G29KT P6SM VCSH BKN025=



000
FTUS43 KGRR 240300 AAA
TAFMKG
TAF AMD
KMKG 240307Z 2403/2424 13012KT 3SM RA BR SCT009 OVC015
     FM240430 13010KT 1 1/2SM RA BR OVC008
     FM240900 21008KT 2SM -RA BR OVC004
     FM242100 25011KT 1SM -SN BR OVC004=



000
FTUS43 KGRR 240300 AAA
TAFAZO
TAF AMD
KAZO 240306Z 2403/2424 14009KT 4SM RA BR SCT008 OVC012
     FM240430 15011KT 2SM RA BR OVC006
     FM240600 19010KT 1 1/2SM -RA BR OVC004
     FM241800 21015G25KT 2SM -DZ BR OVC009=



000
FTUS43 KGRR 240200 AAB
TAFLAN
TAF AMD
KLAN 240242Z 2403/2424 13010G18KT 4SM RA BR SCT008 OVC025
     FM240430 16011KT 2SM RA BR OVC006
     FM240700 19010KT 1 1/2SM -RA BR OVC004
     FM241800 21021G30KT 2SM -DZ BR OVC009=



000
FTUS43 KGRR 240100 AAA
TAFBTL
TAF AMD
KBTL 240142Z 2402/2424 14010G16KT 5SM RA BR SCT008 OVC025
     FM240330 15011KT 2SM RA BR BKN004 OVC006
     FM240600 19010KT 1 1/2SM -RA BR OVC004
     FM241800 21017G27KT 2SM -DZ BR OVC009=



000
FTUS43 KGRR 240000 AAA
TAFLAN
TAF AMD
KLAN 240056Z 2401/2424 13009KT 4SM RA BR SCT008 OVC012
     FM240300 16011KT 2SM RA BR BKN004 OVC006
     FM240600 19010KT 1 1/2SM -RA BR OVC004
     FM241800 21021G30KT 2SM -DZ BR OVC009=



000
FTUS43 KGRR 240000 AAA
TAFJXN
TAF AMD
KJXN 240056Z 2401/2424 13009KT 5SM -RA BR OVC025
     FM240245 15009KT 2SM RA BR BKN008 OVC012
     FM240400 16011KT 2SM RA BR BKN004 OVC006
     FM240600 19010KT 1 1/2SM -RA BR OVC004
     FM241800 21021G30KT 2SM -DZ BR OVC009=



000
FTUS43 KGRR 232300
TAFMKG
TAF
KMKG 232340Z 2400/2424 13010KT 3SM RA BR BKN009 OVC035
     FM240200 13010KT 1 1/2SM RA BR OVC008
     FM240900 21008KT 2SM -RA BR OVC004
     FM242100 25011KT 1SM -SN BR OVC004=



000
FTUS43 KGRR 232300
TAFBTL
TAF
KBTL 232340Z 2400/2424 14009KT 2SM RA BR BKN008 OVC012
     FM240300 15011KT 2SM RA BR BKN004 OVC006
     FM240600 19010KT 1 1/2SM -RA BR OVC004
     FM241800 21017G27KT 2SM -DZ BR OVC009=



000
FTUS43 KGRR 232300
TAFAZO
TAF
KAZO 232340Z 2400/2424 14009KT 2SM RA BR BKN008 OVC012
     FM240300 15011KT 2SM RA BR BKN004 OVC006
     FM240600 19010KT 1 1/2SM -RA BR OVC004
     FM241800 21015G25KT 2SM -DZ BR OVC009=



000
FTUS43 KGRR 232300
TAFJXN
TAF
KJXN 232340Z 2400/2424 13009KT 5SM -RA BR OVC025
     FM240045 15009KT 2SM RA BR BKN008 OVC012
     FM240300 16011KT 2SM RA BR BKN004 OVC006
     FM240600 19010KT 1 1/2SM -RA BR OVC004
     FM241800 21021G30KT 2SM -DZ BR OVC009=



000
FTUS43 KGRR 232300
TAFGRR
TAF
KGRR 232340Z 2400/2424 14010KT 2SM RA BR SCT007 OVC012
     FM240300 12010KT 2SM RA BR OVC006
     FM240900 20011KT 1 1/2SM -RA BR OVC004
     FM242100 25011KT 1SM -SN BR OVC004=



000
FTUS43 KGRR 232300
TAFLAN
TAF
KLAN 232340Z 2400/2424 14009KT 3SM RA BR BKN008 OVC012
     FM240300 16011KT 2SM RA BR BKN004 OVC006
     FM240600 19010KT 1 1/2SM -RA BR OVC004
     FM241800 21021G30KT 2SM -DZ BR OVC009=



000
FTUS43 KGRR 232200 AAA
TAFGRR
TAF AMD
KGRR 232236Z 2323/2418 14010KT 2SM -RA BR SCT007 OVC012
     FM240100 12010KT 2SM RA BR OVC006=



000
FTUS43 KGRR 232100 AAA
TAFAZO
TAF AMD
KAZO 232200Z 2322/2418 14009KT 2SM -RA BR BKN008 OVC012
     FM240000 14011KT 2SM RA BR BKN004 OVC006=



000
FTUS43 KGRR 232100 AAA
TAFAZO
TAF AMD
KAZO 232200Z 2322/2418 14009KT 2SM -RA BR BKN008 OVC012
     FM240000 14011KT 2SM RA BR BKN004 OVC006=



000
FTUS43 KGRR 232100 AAB
TAFJXN
TAF AMD
KJXN 232147Z 2322/2418 14009KT 2SM -RA BR SCT012 BKN025
     FM240000 14012KT 2SM RA BR BKN004 OVC006=



000
FTUS43 KGRR 232100 AAA
TAFBTL
TAF AMD
KBTL 232121Z 2321/2418 14011KT 1 1/2SM -RA BR SCT007 OVC012
     FM240000 14012KT 2SM RA BR BKN004 OVC006=



000
FTUS43 KGRR 232100 AAA
TAFBTL
TAF AMD
KBTL 232121Z 2321/2418 14011KT 1 1/2SM -RA BR SCT007 OVC012
     FM240000 14012KT 2SM RA BR BKN004 OVC006=



000
FTUS43 KGRR 232000 AAA
TAFJXN
TAF AMD
KJXN 232015Z 2320/2418 14009KT 4SM -RA BR SCT012 BKN025
     FM240000 14012KT 2SM RA BR BKN004 OVC006=



000
FTUS43 KGRR 232000 AAA
TAFJXN
TAF AMD
KJXN 232015Z 2320/2418 14009KT 4SM -RA BR SCT012 BKN025
     FM240000 14012KT 2SM RA BR BKN004 OVC006=



000
FTUS43 KGRR 232000 AAA
TAFLAN
TAF AMD
KLAN 232014Z 2320/2418 14010KT 6SM -RA BR SCT015 OVC050
     FM232200 13009KT 4SM -RA BR SCT007 OVC012
     FM240000 14013KT 2SM RA BR BKN004 OVC006=



000
FTUS43 KGRR 232000 AAA
TAFLAN
TAF AMD
KLAN 232014Z 2320/2418 14010KT 6SM -RA BR SCT015 OVC050
     FM232200 13009KT 4SM -RA BR SCT007 OVC012
     FM240000 14013KT 2SM RA BR BKN004 OVC006=



000
FTUS43 KGRR 232000 AAA
TAFMKG
TAF AMD
KMKG 232013Z 2320/2418 12010KT 6SM -RA BR SCT015 BKN050
     FM232100 16010KT 3SM -RA BR BKN015 OVC035
     FM240000 13010KT 1 1/2SM RA BR BKN004 OVC006=



000
FTUS43 KGRR 232000 AAA
TAFMKG
TAF AMD
KMKG 232013Z 2320/2418 12010KT 6SM -RA BR SCT015 BKN050
     FM232100 16010KT 3SM -RA BR BKN015 OVC035
     FM240000 13010KT 1 1/2SM RA BR BKN004 OVC006=



000
FTUS43 KGRR 231700
TAFLAN
TAF
KLAN 231740Z 2318/2418 18012KT 6SM -RA BR SCT015 OVC050
     FM232100 14009KT 4SM -RA BR SCT007 OVC012
     FM240000 14013KT 2SM RA BR BKN004 OVC006=



000
FTUS43 KGRR 231700
TAFMKG
TAF
KMKG 231740Z 2318/2418 18015G25KT 6SM -RA BR SCT015 BKN025
     FM232000 16010KT 2SM -RA BR SCT006 BKN012
     FM240000 13010KT 1 1/2SM RA BR BKN004 OVC006=



000
FTUS43 KGRR 231700
TAFAZO
TAF
KAZO 231740Z 2318/2418 17009KT 6SM -RA BR SCT015 OVC050
     FM232100 14009KT 4SM -RA BR SCT007 OVC012
     FM240000 14011KT 2SM RA BR BKN004 OVC006=



000
FTUS43 KGRR 231700
TAFGRR
TAF
KGRR 231740Z 2318/2418 18012KT 6SM -RA BR SCT015 OVC040
     FM232000 14010KT 4SM -RA BR SCT007 OVC012
     FM232200 12010KT 2SM RA BR BKN004 OVC006=



000
FTUS43 KGRR 231700
TAFBTL
TAF
KBTL 231740Z 2318/2418 17008KT 6SM BR VCSH SCT015 OVC050
     FM232200 14011KT 4SM -RA BR SCT007 OVC012
     FM240000 14012KT 2SM RA BR BKN004 OVC006=



000
FTUS43 KGRR 231700
TAFJXN
TAF
KJXN 231740Z 2318/2418 17008KT P6SM VCSH SCT035 OVC080
     FM232200 14012KT 4SM -RA BR SCT012 OVC025
     FM240000 14012KT 2SM RA BR BKN004 OVC006=



000
FTUS43 KGRR 231300 AAA
TAFJXN
TAF AMD
KJXN 231352Z 2314/2412 19008KT P6SM VCSH SCT015 OVC040
     FM231600 18010KT 5SM BR VCSH OVC015
     FM232000 14012KT 2SM RA BR OVC004=



000
FTUS43 KGRR 231300 AAA
TAFAZO
TAF AMD
KAZO 231351Z 2314/2412 18011KT P6SM VCSH SCT015 OVC035
     FM231600 17011KT 5SM BR VCSH OVC015
     FM232000 14011KT 2SM RA BR OVC004=



000
FTUS43 KGRR 231300 AAA
TAFBTL
TAF AMD
KBTL 231351Z 2314/2412 17012KT P6SM VCSH SCT015 OVC035
     FM231600 18012KT 5SM BR VCSH OVC015
     FM232000 14012KT 2SM RA BR OVC004=



000
FTUS43 KGRR 231200 AAA
TAFMKG
TAF AMD
KMKG 231253Z 2313/2412 18015G25KT P6SM OVC025
     FM231600 17012G22KT 5SM BR VCSH OVC015
     FM232100 14010KT 2SM RA BR OVC004=



000
FTUS43 KGRR 231100 RRA
TAFJXN
TAF
KJXN 231140Z 2312/2412 19008KT P6SM VCSH SCT015 OVC040
      TEMPO 2312/2316 BKN015
     FM231600 18010KT 5SM BR VCSH OVC015
     FM232000 14012KT 2SM RA BR OVC004=



000
FTUS43 KGRR 231100 RRA
TAFMKG
TAF
KMKG 231140Z 2312/2412 18015G25KT P6SM VCSH OVC015
     FM231600 17012G22KT 5SM BR VCSH OVC015
     FM232100 14010KT 2SM RA BR OVC004=



000
FTUS43 KGRR 231100 RRA
TAFAZO
TAF
KAZO 231140Z 2312/2412 18011KT P6SM VCSH SCT015 OVC040
      TEMPO 2312/2316 BKN015
     FM231600 17011KT 5SM BR VCSH OVC015
     FM232000 14011KT 2SM RA BR OVC004=



000
FTUS43 KGRR 231100 RRA
TAFBTL
TAF
KBTL 231140Z 2312/2412 19012KT P6SM VCSH SCT015 OVC040
      TEMPO 2312/2316 BKN015
     FM231600 18012KT 5SM BR VCSH OVC015
     FM232000 14012KT 2SM RA BR OVC004=



000
FTUS43 KGRR 231100 RRA
TAFGRR
TAF
KGRR 231140Z 2312/2412 18011KT P6SM VCSH SCT015 OVC040
     FM231800 17011KT 5SM BR VCSH OVC015
     FM232100 12010KT 2SM RA BR OVC004=



000
FTUS43 KGRR 231100 RRA
TAFLAN
TAF
KLAN 231140Z 2312/2412 19011KT P6SM VCSH SCT015 OVC040
     FM231800 18011KT 5SM BR VCSH OVC015
     FM232100 14012KT 2SM RA BR OVC004=



000
FTUS43 KGRR 230900 AAA
TAFJXN
TAF AMD
KJXN 230927Z 2309/2406 21012KT P6SM VCSH OVC022
     FM231200 19010KT 5SM BR VCSH OVC015
     FM232100 14010KT 3SM RA BR OVC008=



000
FTUS43 KGRR 230900 AAA
TAFBTL
TAF AMD
KBTL 230925Z 2309/2406 20012KT 6SM BR VCSH OVC018
     FM231200 19012KT 5SM BR VCSH OVC008
     FM232000 14010KT 2SM RA BR OVC004=



000
FTUS43 KGRR 230900 AAA
TAFLAN
TAF AMD
KLAN 230925Z 2309/2406 20011KT P6SM VCSH OVC018
     FM231200 19010KT 5SM BR VCSH OVC010
     FM232100 14010KT 3SM RA BR OVC004=



000
FTUS43 KGRR 230900 AAA
TAFAZO
TAF AMD
KAZO 230923Z 2309/2406 20010KT 6SM BR VCSH OVC015
     FM231200 19010KT 4SM BR VCSH OVC008
     FM232000 14010KT 2SM RA BR OVC004=



000
FTUS43 KGRR 230900 AAA
TAFGRR
TAF AMD
KGRR 230922Z 2309/2406 18010KT P6SM VCSH OVC015
     FM231200 19010KT 5SM BR VCSH OVC006
     FM232000 11010KT 2SM RA BR OVC004=



000
FTUS43 KGRR 230900 AAA
TAFMKG
TAF AMD
KMKG 230921Z 2309/2406 18015G25KT P6SM VCSH OVC018
     FM232000 14010KT 2SM RA BR OVC004=



000
FTUS43 KGRR 230500
TAFAZO
TAF
KAZO 230540Z 2306/2406 21010KT P6SM OVC025
     FM230800 21010KT 5SM BR OVC015
     FM231200 19010KT 3SM BR OVC008
     FM232000 14010KT 2SM BR OVC004=



000
FTUS43 KGRR 230500
TAFGRR
TAF
KGRR 230540Z 2306/2406 21008KT 6SM BR OVC015
     FM231200 19010KT 3SM BR OVC006
     FM232000 14010KT 2SM BR OVC004=



000
FTUS43 KGRR 230500
TAFMKG
TAF
KMKG 230540Z 2306/2406 20012KT P6SM OVC018
     FM231000 18011KT 3SM BR OVC018
     FM232000 14010KT 2SM BR OVC004=



000
FTUS43 KGRR 230500
TAFBTL
TAF
KBTL 230540Z 2306/2406 21011KT P6SM OVC025
     FM230800 21011KT 5SM BR OVC015
     FM231200 19010KT 3SM BR OVC008
     FM232000 14010KT 2SM BR OVC004=



000
FTUS43 KGRR 230500
TAFJXN
TAF
KJXN 230540Z 2306/2406 21012KT P6SM OVC022
     FM230900 19010KT 5SM BR OVC015
     FM232100 14010KT 3SM BR OVC008=



000
FTUS43 KGRR 230500
TAFLAN
TAF
KLAN 230540Z 2306/2406 21011KT P6SM OVC022
     FM230800 21011KT 5SM BR OVC015
     FM231200 19010KT 5SM BR OVC010
     FM232100 14010KT 3SM BR OVC004=



000
FTUS43 KGRR 230400 AAA
TAFJXN
TAF AMD
KJXN 230442Z 2305/2324 22012KT 5SM BR VCSH BKN025
     FM232100 12010KT 4SM -RA BR OVC008=



000
FTUS43 KGRR 230400 AAA
TAFJXN
TAF AMD
KJXN 230442Z 2305/2324 22012KT 5SM BR VCSH BKN025
     FM232100 12010KT 4SM -RA BR OVC008=



000
FTUS43 KGRR 230400 AAA
TAFBTL
TAF AMD
KBTL 230441Z 2305/2324 20011KT 5SM BR OVC025
     FM230900 19010KT 2SM BR OVC008=



000
FTUS43 KGRR 230400 AAA
TAFBTL
TAF AMD
KBTL 230441Z 2305/2324 20011KT 5SM BR OVC025
     FM230900 19010KT 2SM BR OVC008=



000
FTUS43 KGRR 230400 AAB
TAFLAN
TAF AMD
KLAN 230441Z 2305/2324 22010KT P6SM OVC035
     FM231000 20011KT 2SM BR OVC010=



000
FTUS43 KGRR 230400 AAB
TAFLAN
TAF AMD
KLAN 230441Z 2305/2324 22010KT P6SM OVC035
     FM231000 20011KT 2SM BR OVC010=



000
FTUS43 KGRR 230400 AAA
TAFAZO
TAF AMD
KAZO 230440Z 2305/2324 20010KT 3SM BR VCSH OVC025
     FM231000 19010KT 2SM BR OVC008=



000
FTUS43 KGRR 230400 AAA
TAFAZO
TAF AMD
KAZO 230440Z 2305/2324 20010KT 3SM BR VCSH OVC025
     FM231000 19010KT 2SM BR OVC008=



000
FTUS43 KGRR 230400 AAA
TAFMKG
TAF AMD
KMKG 230440Z 2305/2324 20012KT 3SM BR OVC035
     FM231000 21011KT 2SM BR OVC018=



000
FTUS43 KGRR 230400 AAA
TAFMKG
TAF AMD
KMKG 230440Z 2305/2324 20012KT 3SM BR OVC035
     FM231000 21011KT 2SM BR OVC018=



000
FTUS43 KGRR 230400 AAB
TAFGRR
TAF AMD
KGRR 230439Z 2305/2324 21010KT 5SM BR OVC050
     FM231000 19010KT 2SM BR OVC006=



000
FTUS43 KGRR 230200 AAA
TAFGRR
TAF AMD
KGRR 230256Z 2303/2324 21011KT 4SM BR OVC050
     FM230500 19010KT 2SM BR OVC006=



000
FTUS43 KGRR 230200 AAA
TAFLAN
TAF AMD
KLAN 230233Z 2303/2324 22012KT 5SM BR OVC018
     FM230500 20011KT 2SM BR OVC005=



000
FTUS43 KGRR 222300
TAFAZO
TAF
KAZO 222340Z 2300/2324 20010KT 3SM BR VCSH OVC018
     FM230400 19010KT 2SM BR OVC008=



000
FTUS43 KGRR 222300
TAFMKG
TAF
KMKG 222340Z 2300/2324 20015KT 3SM BR OVC035
     FM230400 19014KT 2SM BR OVC018=



000
FTUS43 KGRR 222300
TAFGRR
TAF
KGRR 222340Z 2300/2324 20010KT 3SM BR BKN006 OVC015
     FM230100 20008KT 5SM BR OVC018
     FM230500 19010KT 2SM BR OVC006=



000
FTUS43 KGRR 222300
TAFJXN
TAF
KJXN 222340Z 2300/2324 22012KT 5SM BR VCSH BKN018
     FM230500 19010KT 2SM BR OVC007=



000
FTUS43 KGRR 222300
TAFLAN
TAF
KLAN 222340Z 2300/2324 20010KT 2SM BR OVC005=



000
FTUS43 KGRR 222300
TAFBTL
TAF
KBTL 222340Z 2300/2324 20011KT 3SM BR VCSH OVC018
     FM230400 19010KT 2SM BR OVC008=



000
FTUS43 KGRR 222300 AAB
TAFBTL
TAF AMD
KBTL 222306Z 2223/2318 20012KT 3SM BR VCSH OVC018=



000
FTUS43 KGRR 222300 AAB
TAFAZO
TAF AMD
KAZO 222306Z 2223/2318 20011KT 3SM BR VCSH OVC018=



000
FTUS43 KGRR 222300 AAB
TAFMKG
TAF AMD
KMKG 222305Z 2223/2318 20015KT 3SM BR OVC035=



000
FTUS43 KGRR 221900 AAA
TAFJXN
TAF AMD
KJXN 221943Z 2220/2318 22012KT 5SM -DZ BR SCT003 OVC007=



000
FTUS43 KGRR 221900 AAA
TAFMKG
TAF AMD
KMKG 221943Z 2220/2318 22015G25KT 3SM -DZ BR SCT004 OVC008=



000
FTUS43 KGRR 221900 AAA
TAFAZO
TAF AMD
KAZO 221941Z 2220/2318 20011KT 2SM -DZ BR BKN004 OVC007=



000
FTUS43 KGRR 221900 AAA
TAFBTL
TAF AMD
KBTL 221941Z 2220/2318 22012KT 1 1/2SM -DZ BR BKN003 OVC009=



000
FTUS43 KGRR 221700
TAFGRR
TAF
KGRR 221740Z 2218/2318 21012KT 2SM -RA BR OVC004
     FM221900 20008KT 3SM -DZ BR SCT004 OVC007=



000
FTUS43 KGRR 221700
TAFLAN
TAF
KLAN 221740Z 2218/2318 20012KT 3SM -DZ BR OVC008=



000
FTUS43 KGRR 221700
TAFAZO
TAF
KAZO 221740Z 2218/2318 20011KT 4SM -DZ BR BKN007=



000
FTUS43 KGRR 221700
TAFBTL
TAF
KBTL 221740Z 2218/2318 22012KT 5SM -DZ BR OVC009=



000
FTUS43 KGRR 221700
TAFJXN
TAF
KJXN 221740Z 2218/2318 22012KT 6SM -DZ BR SCT009 OVC012=



000
FTUS43 KGRR 221700
TAFMKG
TAF
KMKG 221740Z 2218/2318 22015KT 3SM -DZ BR OVC005=



000
FTUS43 KGRR 221400 AAB
TAFLAN
TAF AMD
KLAN 221451Z 2215/2312 20012KT 4SM -DZ BR OVC008
     FM221600 20012KT 6SM -DZ BR SCT008 OVC015
     FM221700 20012KT 6SM -DZ BR OVC015=



000
FTUS43 KGRR 221400 AAB
TAFAZO
TAF AMD
KAZO 221451Z 2215/2312 20012KT 2SM -DZ BR OVC015
     FM221600 20012KT 4SM -DZ BR OVC017=



000
FTUS43 KGRR 221400 AAB
TAFJXN
TAF AMD
KJXN 221451Z 2215/2312 22012KT 6SM -DZ BR OVC018=



000
FTUS43 KGRR 221400 AAB
TAFBTL
TAF AMD
KBTL 221451Z 2215/2312 20012KT 4SM -DZ BR BKN010 OVC015
     FM221700 20012KT 6SM -DZ BR OVC018=



000
FTUS43 KGRR 221300 AAA
TAFJXN
TAF AMD
KJXN 221310Z 2213/2312 22012KT 5SM -FZRA BR OVC008
     FM221400 20012KT 3SM -RA BR OVC008=



000
FTUS43 KGRR 221300 AAA
TAFLAN
TAF AMD
KLAN 221309Z 2213/2312 20012KT 3SM -FZRA BR OVC009
     FM221400 20012KT 3SM -RA BR OVC009=



000
FTUS43 KGRR 221300 AAA
TAFAZO
TAF AMD
KAZO 221307Z 2213/2312 21012KT 2SM -RA BR OVC005=



000
FTUS43 KGRR 221300 AAA
TAFBTL
TAF AMD
KBTL 221307Z 2213/2312 21012KT 3SM -RA BR OVC007=



000
FTUS43 KGRR 221300 AAA
TAFGRR
TAF AMD
KGRR 221306Z 2213/2312 21012KT 4SM -RA BR OVC007
     FM221600 21012KT 2SM -DZ BR OVC007=



000
FTUS43 KGRR 221300 AAA
TAFMKG
TAF AMD
KMKG 221306Z 2213/2312 21016G23KT 6SM -RA BR OVC009
     FM221500 20013G22KT 3SM -DZ BR OVC009=



000
FTUS43 KGRR 221100
TAFLAN
TAF
KLAN 221139Z 2212/2312 20012KT P6SM -FZRA OVC015
     FM221430 20012KT 5SM -RA BR OVC012
     FM221700 21012KT 3SM -DZ BR OVC009=



000
FTUS43 KGRR 221100
TAFMKG
TAF
KMKG 221139Z 2212/2312 21016G23KT 5SM -RA BR OVC015
     FM221500 20013G22KT 3SM -DZ BR OVC009=



000
FTUS43 KGRR 221100
TAFGRR
TAF
KGRR 221139Z 2212/2312 18011KT P6SM -FZRA OVC015
     FM221330 21012KT 5SM -RA BR OVC012
     FM221600 21012KT 3SM -DZ BR OVC009=



000
FTUS43 KGRR 221100
TAFJXN
TAF
KJXN 221139Z 2212/2312 20012KT P6SM -FZRA OVC015
     FM221400 20012KT 5SM -RA BR OVC012
     FM221800 21012KT 3SM -DZ BR OVC009=



000
FTUS43 KGRR 221100
TAFBTL
TAF
KBTL 221139Z 2212/2312 19012KT 6SM -FZRA BR OVC012
     FM221300 21012KT 3SM -DZ BR OVC009=



000
FTUS43 KGRR 221100
TAFAZO
TAF
KAZO 221139Z 2212/2312 19012KT 6SM -FZRA BR OVC012
     FM221300 21012KT 3SM -DZ BR OVC009=



000
FTUS43 KGRR 221000 AAA
TAFJXN
TAF AMD
KJXN 221021Z 2210/2306 19010KT P6SM -FZRA OVC018
     FM221400 20012KT 5SM -DZ BR OVC012
     FM221800 21011KT 2SM BR VCSH OVC007=



000
FTUS43 KGRR 221000 AAA
TAFLAN
TAF AMD
KLAN 221020Z 2210/2306 19012KT P6SM -FZRA OVC018
     FM221400 20012KT 5SM -DZ BR OVC018
     FM221800 21011KT 2SM BR VCSH OVC007=



000
FTUS43 KGRR 220900 AAA
TAFGRR
TAF AMD
KGRR 220907Z 2209/2306 18011KT P6SM -FZRA OVC018
     FM221300 21014G23KT 5SM -RA BR OVC015
     FM221700 21012KT 2SM BR VCSH OVC009=



000
FTUS43 KGRR 220900 AAA
TAFMKG
TAF AMD
KMKG 220904Z 2209/2306 21015G23KT P6SM -RA OVC025
     FM221200 21014G21KT 4SM -RA BR OVC018
     FM221500 21014G22KT 2SM BR VCSH OVC009=



000
FTUS43 KGRR 220700 AAA
TAFBTL
TAF AMD
KBTL 220737Z 2208/2306 19012KT P6SM OVC027
     FM220900 18012KT 6SM -FZRA BR OVC018
     FM221300 21014G23KT 5SM -RA BR OVC015
     FM221700 21012KT 2SM BR VCSH OVC007=



000
FTUS43 KGRR 220700 AAA
TAFAZO
TAF AMD
KAZO 220736Z 2208/2306 18012KT P6SM OVC029
     FM220900 18012KT 6SM -FZRA BR OVC018
     FM221300 21014G23KT 5SM -RA BR OVC015
     FM221700 21012KT 2SM BR VCSH OVC007=



000
FTUS43 KGRR 220500
TAFBTL
TAF
KBTL 220540Z 2206/2306 19013KT P6SM OVC035
     FM221100 18012KT 6SM -FZRA BR OVC025
     FM221300 21014G23KT 5SM -RA BR OVC015
     FM221700 21012KT 2SM BR VCSH OVC007=



000
FTUS43 KGRR 220500
TAFLAN
TAF
KLAN 220540Z 2206/2306 19010KT P6SM BKN040
     FM221100 20012KT 5SM -FZRA BR OVC025
     FM221400 20012KT 5SM -DZ BR OVC018
     FM221800 21011KT 2SM BR VCSH OVC007=



000
FTUS43 KGRR 220500
TAFAZO
TAF
KAZO 220540Z 2206/2306 19013KT P6SM OVC035
     FM221100 18012KT 6SM -FZRA BR OVC025
     FM221300 21014G23KT 5SM -RA BR OVC015
     FM221700 21012KT 2SM BR VCSH OVC007=



000
FTUS43 KGRR 220500
TAFMKG
TAF
KMKG 220540Z 2206/2306 18012KT P6SM OVC035
     FM221000 18012G23KT 6SM -FZRA BR OVC025
     FM221200 21014G21KT 3SM -RA BR OVC015
     FM221500 21014G22KT 2SM BR VCSH OVC009=



000
FTUS43 KGRR 220500
TAFJXN
TAF
KJXN 220540Z 2206/2306 19010KT P6SM OVC035
     FM221100 20012KT 5SM -FZRA BR OVC025
     FM221400 20012KT 5SM -DZ BR OVC012
     FM221800 21011KT 2SM BR VCSH OVC007=



000
FTUS43 KGRR 220500
TAFGRR
TAF
KGRR 220540Z 2206/2306 18012KT P6SM OVC035
     FM221100 18012KT 6SM -FZRA BR OVC025
     FM221300 21014G23KT 5SM -RA BR OVC015
     FM221700 21012KT 2SM BR VCSH OVC009=



000
FTUS43 KGRR 220400 RRA
TAFGRR
TAF
KGRR 220456Z 2205/2224 18010KT P6SM SCT030
     FM221000 19012KT P6SM OVC030
     FM221100 18012KT 6SM -FZRA BR OVC025
     FM221300 21014G23KT 5SM -RA BR OVC015
     FM221700 21012KT 2SM BR VCSH OVC009=



000
FTUS43 KGRR 220400 RRB
TAFJXN
TAF
KJXN 220456Z 2205/2224 20010KT P6SM SCT030
     FM220900 19012KT P6SM OVC035
     FM221100 20011KT 5SM -FZRA BR OVC025
     FM221400 20012KT 5SM -DZ BR OVC012
     FM221800 21011KT 2SM BR VCSH OVC007=



000
FTUS43 KGRR 220400 RRB
TAFMKG
TAF
KMKG 220456Z 2205/2224 16008KT P6SM SCT030
     FM220900 17012KT P6SM OVC030
     FM221000 18012G23KT 6SM -FZRA BR OVC025
     FM221200 21014G21KT 3SM -RA BR OVC015
     FM221500 21014G22KT 2SM BR VCSH OVC009=



000
FTUS43 KGRR 220400 RRB
TAFLAN
TAF
KLAN 220456Z 2205/2224 19010KT P6SM SCT040
     FM221000 19012KT P6SM OVC030
     FM221100 20011KT 5SM -FZRA BR OVC025
     FM221400 20012KT 5SM -DZ BR OVC018
     FM221800 21011KT 2SM BR VCSH OVC007=



000
FTUS43 KGRR 220400 RRB
TAFBTL
TAF
KBTL 220456Z 2205/2224 19010KT P6SM SCT030
     FM220900 19012KT P6SM OVC030
     FM221100 18012KT 6SM -FZRA BR OVC025
     FM221300 21014G23KT 5SM -RA BR OVC015
     FM221700 21012KT 2SM BR VCSH OVC007=



000
FTUS43 KGRR 220400 RRB
TAFAZO
TAF
KAZO 220456Z 2205/2224 18010KT P6SM SCT030
     FM220900 19012KT P6SM OVC030
     FM221100 18012KT 6SM -FZRA BR OVC025
     FM221300 21014G23KT 5SM -RA BR OVC015
     FM221700 21012KT 2SM BR VCSH OVC007=



000
FTUS43 KGRR 212300 RRA
TAFBTL
TAF
KBTL 212341Z 2200/2224 17007KT P6SM SCT030
     FM221100 18010KT 6SM -FZRA BR OVC025
     FM221200 20012KT 5SM -DZ BR OVC018
     FM221600 21011KT 2SM BR VCSH OVC009
     FM222000 21010KT 1SM BR OVC004=



000
FTUS43 KGRR 212300 RRA
TAFJXN
TAF
KJXN 212341Z 2200/2224 20006KT P6SM SCT040
     FM221000 20013KT 5SM FZRA BR OVC025
     FM221400 21012KT 2SM -DZ BR OVC009=



000
FTUS43 KGRR 212300 RRA
TAFGRR
TAF
KGRR 212341Z 2200/2224 17008KT P6SM SCT030
     FM221100 18012KT 6SM -FZRA BR OVC025
     FM221300 21014G23KT 5SM -RA BR OVC018
     FM221700 21012KT 2SM BR VCSH OVC009=



000
FTUS43 KGRR 212300 RRA
TAFAZO
TAF
KAZO 212341Z 2200/2224 16007KT P6SM SCT030
     FM221100 18010KT 6SM -FZRA BR OVC025
     FM221200 20012KT 5SM -DZ BR OVC018
     FM221500 21011KT 2SM BR VCSH OVC009
     FM222000 21010KT 1SM BR OVC004=



000
FTUS43 KGRR 212300 RRA
TAFLAN
TAF
KLAN 212341Z 2200/2224 19007KT P6SM SCT040
     FM221100 20011KT 5SM -FZRA BR OVC025
     FM221400 20012KT 5SM -DZ BR OVC018
     FM221600 21011KT 2SM BR VCSH OVC009
     FM222000 21010KT 1SM BR OVC004=



000
FTUS43 KGRR 212300 RRA
TAFMKG
TAF
KMKG 212341Z 2200/2224 16008KT P6SM SCT030
     FM221100 18012G23KT 6SM -FZRA BR OVC025
     FM221200 21015G24KT 6SM -RA BR OVC018
     FM221500 21014G22KT 3SM BR VCSH OVC009=



    US Dept of Commerce
    National Oceanic and Atmospheric Administration
    National Weather Service
    1325 East West Highway
    Silver Spring, MD 20910
    Page Author: NWS Internet Services Team
Disclaimer
Information Quality
Credits
Glossary
Privacy Policy
Freedom of Information Act (FOIA)
About Us
Career Opportunities